createdAt,value
2018-09-19T00:00:31.009Z,10.87
2018-09-19T00:02:34.968Z,12.60
2018-09-19T00:04:39.888Z,11.40
2018-09-19T00:06:44.581Z,10.97
2018-09-19T00:08:48.537Z,12.60
2018-09-19T00:10:52.612Z,17.00
2018-09-19T00:12:57.576Z,15.00
2018-09-19T00:15:01.519Z,13.67
2018-09-19T00:17:06.280Z,17.23
2018-09-19T00:19:11.410Z,12.60
2018-09-19T00:21:15.487Z,12.37
2018-09-19T00:23:19.448Z,11.50
2018-09-19T00:25:23.922Z,14.57
2018-09-19T00:27:27.932Z,11.50
2018-09-19T00:29:31.952Z,15.53
2018-09-19T00:31:36.479Z,11.33
2018-09-19T00:33:40.580Z,13.83
2018-09-19T00:35:47.715Z,14.67
2018-09-19T00:37:52.214Z,11.13
2018-09-19T00:39:56.233Z,12.53
2018-09-19T00:42:02.748Z,13.10
2018-09-19T00:44:07.200Z,10.90
2018-09-19T00:46:11.261Z,15.43
2018-09-19T00:48:16.388Z,12.83
2018-09-19T00:50:20.726Z,14.23
2018-09-19T00:52:24.801Z,12.97
2018-09-19T00:54:29.497Z,11.57
2018-09-19T00:56:33.819Z,12.67
2018-09-19T00:58:37.856Z,12.03
2018-09-19T01:00:41.832Z,11.70
2018-09-19T01:02:46.238Z,13.20
2018-09-19T01:04:50.257Z,14.87
2018-09-19T01:06:54.196Z,11.43
2018-09-19T01:08:58.832Z,14.47
2018-09-19T01:11:03.660Z,11.17
2018-09-19T01:13:07.698Z,12.70
2018-09-19T01:15:18.337Z,14.07
2018-09-19T01:17:22.342Z,12.97
2018-09-19T01:19:26.297Z,13.07
2018-09-19T01:21:30.270Z,12.37
2018-09-19T01:23:34.317Z,13.87
2018-09-19T01:25:39.020Z,16.07
2018-09-19T01:27:45.418Z,12.00
2018-09-19T01:29:49.412Z,12.67
2018-09-19T01:31:53.738Z,14.80
2018-09-19T01:33:58.744Z,12.93
2018-09-19T01:36:03.629Z,13.63
2018-09-19T01:38:07.603Z,11.83
2018-09-19T01:40:12.921Z,13.67
2018-09-19T01:42:17.455Z,12.63
2018-09-19T01:44:22.044Z,20.47
2018-09-19T01:46:26.202Z,16.47
2018-09-19T01:48:30.208Z,25.50
2018-09-19T01:50:34.179Z,13.37
2018-09-19T01:52:38.735Z,18.07
2018-09-19T01:54:43.029Z,12.67
2018-09-19T01:56:47.114Z,15.87
2018-09-19T01:58:51.611Z,13.67
2018-09-19T02:00:55.761Z,17.27
2018-09-19T02:02:59.769Z,14.90
2018-09-19T02:05:04.079Z,14.57
2018-09-19T02:07:08.069Z,14.97
2018-09-19T02:09:13.502Z,20.07
2018-09-19T02:11:17.580Z,17.57
2018-09-19T02:13:21.649Z,13.83
2018-09-19T02:15:25.658Z,13.50
2018-09-19T02:17:29.994Z,14.07
2018-09-19T02:19:33.962Z,15.97
2018-09-19T02:21:38.332Z,13.00
2018-09-19T02:23:42.677Z,19.30
2018-09-19T02:25:46.669Z,16.17
2018-09-19T02:27:51.431Z,12.10
2018-09-19T02:29:56.835Z,12.63
2018-09-19T02:32:00.926Z,14.47
2018-09-19T02:34:04.936Z,14.67
2018-09-19T02:36:08.943Z,16.00
2018-09-19T02:38:13.452Z,14.00
2018-09-19T02:40:18.092Z,17.47
2018-09-19T02:42:25.339Z,14.27
2018-09-19T02:44:29.558Z,17.63
2018-09-19T02:46:33.553Z,14.10
2018-09-19T02:48:37.968Z,15.07
2018-09-19T02:50:41.941Z,13.77
2018-09-19T02:52:50.008Z,14.97
2018-09-19T02:54:55.410Z,13.27
2018-09-19T02:56:59.701Z,18.20
2018-09-19T02:59:03.701Z,17.30
2018-09-19T03:01:10.270Z,13.33
2018-09-19T03:03:14.319Z,14.57
2018-09-19T03:05:18.333Z,18.43
2018-09-19T03:10:08.345Z,16.93
2018-09-19T03:12:15.064Z,17.50
2018-09-19T03:14:20.060Z,17.80
2018-09-19T03:16:24.176Z,17.97
2018-09-19T03:18:28.486Z,12.93
2018-09-19T03:20:32.546Z,13.37
2018-09-19T03:22:37.111Z,13.70
2018-09-19T03:24:42.480Z,14.23
2018-09-19T03:26:47.037Z,13.57
2018-09-19T03:28:51.428Z,15.83
2018-09-19T03:30:57.509Z,17.43
2018-09-19T03:33:02.725Z,15.53
2018-09-19T03:35:08.894Z,13.27
2018-09-19T03:37:16.125Z,14.53
2018-09-19T03:39:22.012Z,17.13
2018-09-19T03:41:26.224Z,15.60
2018-09-19T03:43:30.484Z,14.17
2018-09-19T03:45:36.760Z,16.10
2018-09-19T03:47:41.493Z,17.47
2018-09-19T03:49:47.926Z,14.83
2018-09-19T03:51:52.556Z,14.27
2018-09-19T03:53:58.542Z,13.97
2018-09-19T03:56:07.756Z,14.40
2018-09-19T03:58:12.092Z,17.17
2018-09-19T04:00:29.489Z,15.90
2018-09-19T04:02:34.851Z,15.87
2018-09-19T04:04:39.205Z,14.10
2018-09-19T04:06:43.422Z,16.37
2018-09-19T04:08:48.185Z,21.30
2018-09-19T04:10:53.405Z,19.33
2018-09-19T04:12:57.377Z,13.83
2018-09-19T04:15:02.496Z,14.63
2018-09-19T04:17:07.147Z,12.10
2018-09-19T04:19:14.020Z,12.87
2018-09-19T04:21:18.216Z,12.77
2018-09-19T04:23:22.330Z,12.73
2018-09-19T04:25:27.526Z,11.10
2018-09-19T04:27:32.094Z,11.80
2018-09-19T04:29:37.595Z,12.63
2018-09-19T04:31:43.885Z,11.87
2018-09-19T04:33:49.992Z,11.53
2018-09-19T04:35:55.731Z,13.40
2018-09-19T04:38:00.172Z,13.37
2018-09-19T04:40:10.019Z,12.17
2018-09-19T04:42:17.820Z,11.63
2018-09-19T04:44:23.313Z,15.27
2018-09-19T04:46:27.400Z,12.83
2018-09-19T04:48:34.286Z,12.90
2018-09-19T04:50:50.214Z,16.13
2018-09-19T04:52:55.750Z,16.67
2018-09-19T04:55:07.222Z,12.80
2018-09-19T04:57:14.789Z,14.43
2018-09-19T04:59:23.122Z,14.20
2018-09-19T05:01:28.621Z,13.07
2018-09-19T05:03:33.369Z,14.67
2018-09-19T05:05:39.390Z,16.20
2018-09-19T05:07:45.630Z,15.13
2018-09-19T05:09:52.595Z,16.37
2018-09-19T05:12:03.536Z,13.83
2018-09-19T05:14:08.703Z,19.10
2018-09-19T05:16:17.295Z,14.77
2018-09-19T05:18:31.530Z,15.93
2018-09-19T05:20:41.353Z,16.40
2018-09-19T05:22:55.560Z,16.73
2018-09-19T05:25:02.297Z,16.37
2018-09-19T05:27:15.498Z,15.77
2018-09-19T05:29:21.388Z,15.83
2018-09-19T05:31:27.795Z,17.87
2018-09-19T05:33:39.883Z,17.87
2018-09-19T05:35:54.300Z,16.20
2018-09-19T05:38:01.029Z,19.27
2018-09-19T05:40:16.738Z,17.07
2018-09-19T05:42:29.623Z,18.30
2018-09-19T05:44:40.769Z,16.53
2018-09-19T05:46:47.111Z,13.73
2018-09-19T05:48:56.036Z,18.87
2018-09-19T05:51:02.062Z,14.73
2018-09-19T05:53:10.222Z,20.27
2018-09-19T05:55:15.582Z,18.00
2018-09-19T05:57:21.442Z,20.00
2018-09-19T05:59:27.268Z,18.13
2018-09-19T06:01:43.060Z,22.13
2018-09-19T06:03:57.181Z,17.10
2018-09-19T06:06:04.114Z,16.27
2018-09-19T06:08:14.682Z,17.10
2018-09-19T06:10:21.979Z,17.67
2018-09-19T06:12:30.538Z,15.40
2018-09-19T06:14:40.499Z,15.67
2018-09-19T06:16:52.359Z,18.70
2018-09-19T06:19:07.378Z,17.13
2018-09-19T06:21:22.165Z,15.93
2018-09-19T06:23:29.991Z,18.20
2018-09-19T06:25:34.641Z,18.23
2018-09-19T06:27:42.366Z,13.27
2018-09-19T06:29:50.856Z,21.30
2018-09-19T06:32:06.778Z,18.70
2018-09-19T06:34:15.875Z,18.13
2018-09-19T06:36:23.741Z,21.97
2018-09-19T06:38:33.672Z,20.23
2018-09-19T06:41:13.564Z,19.47
2018-09-19T06:43:44.760Z,19.50
2018-09-19T06:45:52.190Z,19.03
2018-09-19T06:47:57.335Z,16.13
2018-09-19T06:50:02.790Z,19.37
2018-09-19T06:52:09.273Z,23.00
2018-09-19T06:54:14.958Z,21.33
2018-09-19T06:56:21.995Z,19.47
2018-09-19T06:58:28.731Z,18.33
2018-09-19T07:00:41.333Z,18.17
2018-09-19T07:02:52.438Z,18.70
2018-09-19T07:04:58.299Z,22.07
2018-09-19T07:07:02.681Z,21.23
2018-09-19T07:09:11.760Z,21.47
2018-09-19T07:11:20.592Z,22.33
2018-09-19T07:13:27.456Z,26.30
2018-09-19T07:15:40.188Z,21.37
2018-09-19T07:17:48.516Z,21.93
2018-09-19T07:19:56.690Z,25.03
2018-09-19T07:22:03.860Z,19.57
2018-09-19T07:24:13.226Z,22.80
2018-09-19T07:26:20.240Z,21.00
2018-09-19T07:28:27.268Z,23.27
2018-09-19T07:30:36.465Z,23.67
2018-09-19T07:32:44.951Z,15.40
2018-09-19T07:34:50.613Z,27.67
2018-09-19T07:37:00.575Z,21.53
2018-09-19T07:39:14.332Z,23.20
2018-09-19T07:41:22.891Z,24.43
2018-09-19T07:43:29.202Z,21.97
2018-09-19T07:45:35.882Z,17.60
2018-09-19T07:47:41.275Z,20.87
2018-09-19T07:49:50.285Z,22.67
2018-09-19T07:51:55.555Z,16.97
2018-09-19T07:54:08.300Z,18.20
2018-09-19T07:56:15.816Z,23.03
2018-09-19T07:58:24.570Z,18.53
2018-09-19T08:00:35.013Z,16.67
2018-09-19T08:02:41.357Z,13.70
2018-09-19T08:04:45.366Z,15.27
2018-09-19T08:06:49.414Z,14.27
2018-09-19T08:08:53.737Z,11.43
2018-09-19T08:10:57.841Z,14.33
2018-09-19T08:13:02.783Z,13.27
2018-09-19T08:15:07.730Z,17.20
2018-09-19T08:17:15.721Z,14.20
2018-09-19T08:19:26.150Z,10.37
2018-09-19T08:21:32.885Z,15.10
2018-09-19T08:23:37.989Z,12.10
2018-09-19T08:25:47.451Z,16.53
2018-09-19T08:27:55.593Z,14.70
2018-09-19T08:30:03.006Z,13.67
2018-09-19T08:32:09.629Z,9.97
2018-09-19T08:34:23.138Z,12.37
2018-09-19T08:36:33.973Z,12.37
2018-09-19T08:38:45.423Z,12.60
2018-09-19T08:40:57.040Z,13.73
2018-09-19T08:43:03.695Z,11.97
2018-09-19T08:45:14.081Z,10.20
2018-09-19T08:47:25.007Z,10.95
2018-09-19T08:49:31.838Z,9.80
2018-09-19T08:51:41.400Z,8.50
2018-09-19T08:53:51.175Z,13.45
2018-09-19T08:55:56.254Z,14.90
2018-09-19T08:58:05.261Z,11.33
2018-09-19T09:00:15.265Z,11.40
2018-09-19T09:02:26.073Z,10.73
2018-09-19T09:04:37.774Z,9.18
2018-09-19T09:06:48.916Z,12.73
2018-09-19T09:08:57.515Z,14.07
2018-09-19T09:11:04.781Z,10.43
2018-09-19T09:13:12.407Z,12.40
2018-09-19T09:15:23.709Z,12.83
2018-09-19T09:17:41.528Z,11.90
2018-09-19T09:19:52.505Z,11.10
2018-09-19T09:21:59.366Z,11.78
2018-09-19T09:24:08.750Z,12.47
2018-09-19T09:26:13.743Z,11.63
2018-09-19T09:28:25.000Z,11.75
2018-09-19T09:30:33.368Z,13.62
2018-09-19T09:32:46.922Z,11.45
2018-09-19T09:34:54.724Z,9.43
2018-09-19T09:37:09.050Z,9.83
2018-09-19T09:39:13.951Z,10.82
2018-09-19T09:41:19.135Z,8.65
2018-09-19T09:43:30.759Z,9.03
2018-09-19T09:45:41.310Z,6.73
2018-09-19T09:47:58.457Z,7.97
2018-09-19T09:50:09.381Z,8.10
2018-09-19T09:52:16.681Z,9.10
2018-09-19T09:54:25.733Z,9.63
2018-09-19T09:56:33.689Z,10.15
2018-09-19T09:58:41.837Z,11.97
2018-09-19T10:00:52.286Z,8.27
2018-09-19T10:03:03.448Z,8.70
2018-09-19T10:05:15.679Z,9.57
2018-09-19T10:07:27.678Z,6.63
2018-09-19T10:09:38.709Z,9.83
2018-09-19T10:11:49.063Z,10.43
2018-09-19T10:14:02.904Z,10.13
2018-09-19T10:16:14.832Z,10.95
2018-09-19T10:18:21.747Z,10.88
2018-09-19T10:20:31.193Z,9.85
2018-09-19T10:22:43.797Z,9.90
2018-09-19T10:24:49.254Z,8.38
2018-09-19T10:26:55.429Z,10.88
2018-09-19T10:29:08.285Z,9.80
2018-09-19T10:31:19.430Z,10.05
2018-09-19T10:33:27.630Z,6.78
2018-09-19T10:35:37.885Z,11.28
2018-09-19T10:37:48.066Z,10.23
2018-09-19T10:39:54.072Z,7.50
2018-09-19T10:42:01.419Z,11.00
2018-09-19T10:44:19.979Z,9.63
2018-09-19T10:47:06.591Z,8.88
2018-09-19T10:49:12.751Z,11.05
2018-09-19T10:51:19.665Z,7.78
2018-09-19T10:53:44.849Z,10.10
2018-09-19T10:55:58.748Z,8.18
2018-09-19T10:58:09.895Z,7.53
2018-09-19T11:02:36.189Z,8.43
2018-09-19T11:04:42.301Z,8.18
2018-09-19T11:06:48.539Z,9.45
2018-09-19T11:09:02.213Z,8.08
2018-09-19T11:11:12.774Z,8.53
2018-09-19T11:13:22.859Z,8.30
2018-09-19T11:15:30.389Z,7.25
2018-09-19T11:17:37.252Z,8.05
2018-09-19T11:19:46.420Z,6.78
2018-09-19T11:21:55.478Z,6.37
2018-09-19T11:24:03.901Z,10.43
2018-09-19T11:26:12.267Z,7.85
2018-09-19T11:28:19.654Z,7.53
2018-09-19T11:30:30.803Z,9.68
2018-09-19T11:32:38.876Z,11.85
2018-09-19T11:34:44.581Z,7.08
2018-09-19T11:36:52.245Z,10.68
2018-09-19T11:39:02.105Z,9.30
2018-09-19T11:41:10.437Z,5.67
2018-09-19T11:43:18.368Z,7.80
2018-09-19T11:45:29.257Z,10.48
2018-09-19T11:47:37.727Z,7.17
2018-09-19T11:49:46.787Z,7.12
2018-09-19T11:51:56.845Z,6.65
2018-09-19T11:54:08.684Z,9.23
2018-09-19T11:56:16.498Z,7.78
2018-09-19T11:58:26.519Z,6.78
2018-09-19T12:00:38.993Z,5.50
2018-09-19T12:02:57.067Z,7.10
2018-09-19T12:05:04.352Z,6.50
2018-09-19T12:07:15.430Z,7.62
2018-09-19T12:09:22.069Z,11.20
2018-09-19T12:11:30.244Z,6.75
2018-09-19T12:15:52.173Z,11.20
2018-09-19T12:17:59.647Z,9.40
2018-09-19T12:20:08.011Z,6.12
2018-09-19T12:22:16.151Z,5.35
2018-09-19T12:24:24.886Z,5.40
2018-09-19T12:26:33.803Z,6.50
2018-09-19T12:28:41.084Z,7.53
2018-09-19T12:30:55.538Z,7.22
2018-09-19T12:33:02.963Z,6.08
2018-09-19T12:35:11.445Z,5.45
2018-09-19T12:37:16.381Z,6.03
2018-09-19T12:39:27.772Z,7.72
2018-09-19T12:41:34.740Z,9.55
2018-09-19T12:43:43.383Z,8.50
2018-09-19T12:45:48.472Z,7.30
2018-09-19T12:47:56.810Z,8.58
2018-09-19T12:50:04.571Z,5.12
2018-09-19T12:52:11.370Z,5.70
2018-09-19T12:54:19.211Z,5.72
2018-09-19T12:56:26.204Z,7.40
2018-09-19T12:58:33.815Z,7.67
2018-09-19T13:00:41.157Z,7.72
2018-09-19T13:02:47.672Z,6.97
2018-09-19T13:04:52.921Z,5.60
2018-09-19T13:07:02.333Z,9.30
2018-09-19T13:09:11.056Z,7.17
2018-09-19T13:11:18.789Z,8.30
2018-09-19T13:13:25.928Z,6.03
2018-09-19T13:15:35.279Z,8.00
2018-09-19T13:17:41.262Z,6.87
2018-09-19T13:22:13.238Z,5.83
2018-09-19T13:24:21.116Z,5.60
2018-09-19T13:26:26.378Z,6.50
2018-09-19T13:28:35.586Z,7.50
2018-09-19T13:30:41.674Z,8.30
2018-09-19T13:32:48.477Z,6.40
2018-09-19T13:34:55.982Z,8.78
2018-09-19T13:37:00.910Z,8.05
2018-09-19T13:39:13.662Z,6.37
2018-09-19T13:41:22.640Z,6.45
2018-09-19T13:43:31.309Z,5.40
2018-09-19T13:45:38.016Z,7.17
2018-09-19T13:47:45.565Z,8.30
2018-09-19T13:49:59.664Z,4.78
2018-09-19T13:52:07.562Z,7.58
2018-09-19T13:54:19.328Z,6.15
2018-09-19T13:56:25.269Z,6.90
2018-09-19T13:58:33.502Z,4.97
2018-09-19T14:00:42.142Z,8.73
2018-09-19T14:02:54.842Z,6.15
2018-09-19T14:05:00.871Z,5.80
2018-09-19T14:07:09.461Z,6.75
2018-09-19T14:09:14.788Z,6.15
2018-09-19T14:11:22.071Z,8.35
2018-09-19T14:13:27.688Z,4.58
2018-09-19T14:15:35.581Z,4.60
2018-09-19T14:17:46.151Z,4.80
2018-09-19T14:19:53.336Z,9.15
2018-09-19T14:22:02.715Z,4.87
2018-09-19T14:24:10.316Z,3.72
2018-09-19T14:26:19.640Z,5.78
2018-09-19T14:28:26.604Z,5.35
2018-09-19T14:30:35.217Z,5.35
2018-09-19T14:32:44.317Z,5.53
2018-09-19T14:34:50.871Z,6.55
2018-09-19T14:36:56.845Z,4.85
2018-09-19T14:39:03.597Z,6.30
2018-09-19T14:41:10.636Z,4.42
2018-09-19T14:43:18.851Z,6.25
2018-09-19T14:45:30.635Z,8.28
2018-09-19T14:47:38.290Z,5.92
2018-09-19T14:49:46.228Z,6.67
2018-09-19T14:51:58.059Z,5.10
2018-09-19T14:54:05.069Z,4.37
2018-09-19T14:56:15.730Z,5.37
2018-09-19T14:58:23.646Z,4.28
2018-09-19T15:00:30.782Z,7.22
2018-09-19T15:02:36.219Z,7.35
2018-09-19T15:04:44.441Z,5.28
2018-09-19T15:06:50.389Z,6.40
2018-09-19T15:08:57.804Z,6.60
2018-09-19T15:11:06.421Z,3.45
2018-09-19T15:13:10.797Z,6.58
2018-09-19T15:15:17.457Z,7.83
2018-09-19T15:17:27.150Z,5.35
2018-09-19T15:19:35.855Z,13.62
2018-09-19T15:21:41.706Z,6.17
2018-09-19T15:23:50.033Z,8.13
2018-09-19T15:26:01.597Z,4.45
2018-09-19T15:28:08.151Z,6.30
2018-09-19T15:30:16.693Z,4.42
2018-09-19T15:32:24.293Z,4.40
2018-09-19T15:34:34.321Z,4.55
2018-09-19T15:36:44.529Z,4.17
2018-09-19T15:38:50.820Z,6.40
2018-09-19T15:40:57.919Z,7.03
2018-09-19T15:43:03.939Z,7.92
2018-09-19T15:45:13.609Z,4.40
2018-09-19T15:47:20.950Z,4.72
2018-09-19T15:49:26.155Z,7.70
2018-09-19T15:51:31.606Z,7.97
2018-09-19T15:53:43.247Z,8.28
2018-09-19T15:55:51.579Z,6.10
2018-09-19T15:58:01.533Z,7.72
2018-09-19T16:00:08.039Z,6.87
2018-09-19T16:02:22.609Z,4.45
2018-09-19T16:04:43.058Z,6.50
2018-09-19T16:06:52.729Z,4.33
2018-09-19T16:09:00.543Z,5.17
2018-09-19T16:11:05.881Z,8.00
2018-09-19T16:13:14.743Z,8.18
2018-09-19T16:15:21.494Z,6.35
2018-09-19T16:17:28.490Z,6.87
2018-09-19T16:19:32.537Z,8.05
2018-09-19T16:21:37.984Z,5.12
2018-09-19T16:23:43.133Z,11.85
2018-09-19T16:25:47.974Z,6.53
2018-09-19T16:27:53.229Z,8.00
2018-09-19T16:30:00.025Z,4.05
2018-09-19T16:32:07.320Z,9.73
2018-09-19T16:34:14.779Z,9.50
2018-09-19T16:36:22.833Z,6.67
2018-09-19T16:38:29.360Z,7.00
2018-09-19T16:40:36.445Z,7.85
2018-09-19T16:42:41.362Z,6.65
2018-09-19T16:44:49.813Z,6.78
2018-09-19T16:46:58.916Z,6.35
2018-09-19T16:49:10.373Z,9.13
2018-09-19T16:51:20.336Z,7.95
2018-09-19T16:53:29.525Z,9.28
2018-09-19T16:55:39.985Z,4.12
2018-09-19T16:57:47.618Z,5.72
2018-09-19T16:59:55.045Z,7.70
2018-09-19T17:01:59.433Z,9.18
2018-09-19T17:04:07.389Z,4.90
2018-09-19T17:06:21.510Z,6.62
2018-09-19T17:08:51.568Z,6.00
2018-09-19T17:11:05.669Z,7.53
2018-09-19T17:13:15.141Z,5.93
2018-09-19T17:15:26.913Z,4.20
2018-09-19T17:17:55.065Z,7.17
2018-09-19T17:20:02.817Z,6.53
2018-09-19T17:22:10.729Z,5.53
2018-09-19T17:24:17.806Z,6.03
2018-09-19T17:26:25.733Z,5.75
2018-09-19T17:28:32.988Z,5.97
2018-09-19T17:30:42.583Z,9.43
2018-09-19T17:32:48.833Z,6.63
2018-09-19T17:34:57.287Z,9.37
2018-09-19T17:37:04.101Z,9.17
2018-09-19T17:39:14.149Z,5.80
2018-09-19T17:41:21.892Z,6.80
2018-09-19T17:43:27.099Z,7.33
2018-09-19T17:45:31.470Z,5.23
2018-09-19T17:47:41.238Z,5.03
2018-09-19T17:49:46.487Z,6.53
2018-09-19T17:51:59.738Z,5.73
2018-09-19T17:54:09.688Z,10.48
2018-09-19T17:56:15.842Z,7.83
2018-09-19T17:58:25.997Z,7.50
2018-09-19T18:00:32.445Z,9.67
2018-09-19T18:02:42.284Z,5.93
2018-09-19T18:04:48.836Z,9.07
2018-09-19T18:06:55.308Z,4.43
2018-09-19T18:09:03.869Z,9.83
2018-09-19T18:11:13.508Z,7.80
2018-09-19T18:13:19.793Z,11.27
2018-09-19T18:15:27.075Z,8.43
2018-09-19T18:17:33.986Z,7.63
2018-09-19T18:19:43.275Z,7.57
2018-09-19T18:21:51.036Z,9.97
2018-09-19T18:23:59.038Z,8.07
2018-09-19T18:26:05.725Z,9.27
2018-09-19T18:28:14.373Z,9.20
2018-09-19T18:30:22.186Z,7.13
2018-09-19T18:32:30.177Z,7.77
2018-09-19T18:34:36.053Z,8.13
2018-09-19T18:36:44.263Z,7.03
2018-09-19T18:38:49.479Z,6.77
2018-09-19T18:40:57.706Z,7.97
2018-09-19T18:43:04.397Z,7.60
2018-09-19T18:45:09.038Z,7.50
2018-09-19T18:47:14.691Z,11.33
2018-09-19T18:49:18.650Z,7.27
2018-09-19T18:51:23.195Z,11.17
2018-09-19T18:53:27.691Z,8.33
2018-09-19T18:55:33.197Z,7.43
2018-09-19T18:57:37.794Z,10.93
2018-09-19T18:59:43.365Z,7.20
2018-09-19T19:01:48.474Z,7.47
2018-09-19T19:03:54.121Z,9.00
2018-09-19T19:05:58.209Z,7.87
2018-09-19T19:08:03.543Z,10.23
2018-09-19T19:10:08.464Z,6.00
2018-09-19T19:12:14.752Z,10.20
2018-09-19T19:14:19.641Z,8.87
2018-09-19T19:16:23.686Z,9.33
2018-09-19T19:18:28.466Z,10.93
2018-09-19T19:20:33.799Z,7.57
2018-09-19T19:22:39.681Z,8.00
2018-09-19T19:24:46.600Z,9.03
2018-09-19T19:26:52.888Z,6.67
2018-09-19T19:28:56.845Z,7.57
2018-09-19T19:31:03.127Z,7.60
2018-09-19T19:33:07.417Z,10.87
2018-09-19T19:37:22.362Z,9.07
2018-09-19T19:39:26.354Z,9.57
2018-09-19T19:41:30.482Z,9.40
2018-09-19T19:43:35.586Z,9.43
2018-09-19T19:45:41.325Z,9.30
2018-09-19T19:47:45.387Z,11.70
2018-09-19T19:49:50.122Z,10.40
2018-09-19T19:51:54.990Z,7.90
2018-09-19T19:54:00.468Z,8.07
2018-09-19T19:56:06.311Z,10.60
2018-09-19T19:58:10.324Z,9.90
2018-09-19T20:00:16.537Z,8.57
2018-09-19T20:02:22.147Z,8.77
2018-09-19T20:04:26.445Z,8.37
2018-09-19T20:06:30.360Z,10.20
2018-09-19T20:08:34.264Z,7.63
2018-09-19T20:10:38.496Z,9.93
2018-09-19T20:12:42.552Z,10.10
2018-09-19T20:14:48.088Z,7.67
2018-09-19T20:17:01.381Z,9.40
2018-09-19T20:19:05.565Z,10.30
2018-09-19T20:21:11.462Z,8.60
2018-09-19T20:23:15.759Z,7.33
2018-09-19T20:25:20.740Z,7.50
2018-09-19T20:27:25.174Z,6.70
2018-09-19T20:29:31.328Z,7.43
2018-09-19T20:31:36.289Z,6.10
2018-09-19T20:33:40.950Z,8.60
2018-09-19T20:35:45.202Z,7.47
2018-09-19T20:37:49.153Z,9.07
2018-09-19T20:39:53.053Z,7.47
2018-09-19T20:41:59.224Z,6.97
2018-09-19T20:44:05.484Z,9.40
2018-09-19T20:46:11.874Z,10.20
2018-09-19T20:48:21.481Z,7.93
2018-09-19T20:50:26.476Z,9.40
2018-09-19T20:52:32.941Z,7.13
2018-09-19T20:54:41.379Z,8.80
2018-09-19T20:56:48.956Z,9.47
2018-09-19T20:59:08.792Z,11.10
2018-09-19T21:01:13.348Z,7.17
2018-09-19T21:03:17.773Z,11.30
2018-09-19T21:05:26.492Z,9.83
2018-09-19T21:07:30.492Z,7.83
2018-09-19T21:09:34.471Z,10.70
2018-09-19T21:11:40.537Z,6.93
2018-09-19T21:13:46.157Z,8.27
2018-09-19T21:15:51.025Z,10.10
2018-09-19T21:17:56.922Z,7.20
2018-09-19T21:20:00.906Z,11.10
2018-09-19T21:22:05.025Z,7.13
2018-09-19T21:24:09.301Z,9.03
2018-09-19T21:26:13.301Z,8.37
2018-09-19T21:28:18.349Z,9.00
2018-09-19T21:30:24.711Z,9.10
2018-09-19T21:32:29.637Z,9.47
2018-09-19T21:34:35.821Z,12.63
2018-09-19T21:36:40.079Z,9.67
2018-09-19T21:38:45.046Z,7.70
2018-09-19T21:40:49.094Z,7.77
2018-09-19T21:42:55.757Z,6.83
2018-09-19T21:45:01.633Z,12.50
2018-09-19T21:47:05.625Z,11.57
2018-09-19T21:49:10.757Z,9.00
2018-09-19T21:51:16.139Z,7.47
2018-09-19T21:53:33.250Z,11.03
2018-09-19T21:55:37.237Z,11.80
2018-09-19T21:57:42.169Z,10.67
2018-09-19T21:59:47.381Z,6.53
2018-09-19T22:01:56.489Z,9.60
2018-09-19T22:04:00.482Z,8.63
2018-09-19T22:06:05.707Z,6.70
2018-09-19T22:08:10.495Z,9.60
2018-09-19T22:10:16.120Z,10.03
2018-09-19T22:12:20.414Z,8.03
2018-09-19T22:14:25.297Z,9.47
2018-09-19T22:16:29.259Z,8.40
2018-09-19T22:18:33.780Z,7.67
2018-09-19T22:20:37.757Z,9.53
2018-09-19T22:22:41.699Z,8.97
2018-09-19T22:24:47.097Z,7.97
2018-09-19T22:26:51.052Z,12.67
2018-09-19T22:28:56.026Z,7.50
2018-09-19T22:30:59.980Z,8.93
2018-09-19T22:33:04.029Z,6.67
2018-09-19T22:35:09.195Z,7.50
2018-09-19T22:37:13.726Z,9.73
2018-09-19T22:39:18.573Z,7.90
2018-09-19T22:41:22.749Z,10.07
2018-09-19T22:43:26.713Z,10.67
2018-09-19T22:45:30.710Z,7.47
2018-09-19T22:47:34.751Z,9.73
2018-09-19T22:49:39.991Z,11.30
2018-09-19T22:51:46.829Z,6.53
2018-09-19T22:53:52.277Z,7.27
2018-09-19T22:55:57.646Z,12.77
2018-09-19T22:58:03.282Z,9.13
2018-09-19T23:00:07.259Z,13.13
2018-09-19T23:02:13.758Z,10.47
2018-09-19T23:04:17.728Z,9.33
2018-09-19T23:06:21.707Z,12.40
2018-09-19T23:08:29.469Z,7.23
2018-09-19T23:10:33.405Z,9.80
2018-09-19T23:12:37.358Z,11.20
2018-09-19T23:14:41.607Z,9.23
2018-09-19T23:16:46.010Z,8.23
2018-09-19T23:18:49.939Z,7.53
2018-09-19T23:20:53.889Z,10.83
2018-09-19T23:22:57.863Z,7.73
2018-09-19T23:25:01.844Z,8.83
2018-09-19T23:27:06.197Z,9.33
2018-09-19T23:29:10.168Z,10.27
2018-09-19T23:31:16.137Z,11.70
2018-09-19T23:33:21.125Z,9.93
2018-09-19T23:35:25.143Z,6.70
2018-09-19T23:37:29.168Z,10.47
2018-09-19T23:39:34.502Z,11.10
2018-09-19T23:41:38.500Z,9.43
2018-09-19T23:43:44.081Z,10.43
2018-09-19T23:45:49.933Z,8.70
2018-09-19T23:47:54.730Z,13.43
2018-09-19T23:50:00.397Z,10.60
2018-09-19T23:52:05.394Z,10.93
2018-09-19T23:54:09.391Z,10.50
2018-09-19T23:56:13.972Z,12.93
2018-09-19T23:58:18.297Z,7.53
